Time;durP1;ratioP1;P1;durP2;ratioP2;P2;SDS_P1;SDS_P2;PMS_P1;PMS_P2;Temp;Humidity;BMP_temperature;BMP_pressure;BME280_temperature;BME280_humidity;BME280_pressure;Samples;Min_cycle;Max_cycle;Signal;HPM_P1;HPM_P2
2023/01/24 00:00:04;;;;;;;21.33;3.08;;;;;;;3.29;96.49;94372.38;5028726;28;20026;-50
2023/01/24 00:02:29;;;;;;;5.10;2.80;;;;;;;3.32;97.80;94381.56;5028816;28;20033;-49
2023/01/24 00:04:55;;;;;;;4.80;4.13;;;;;;;3.18;98.37;94382.41;5041779;28;20086;-49
2023/01/24 00:07:20;;;;;;;3.70;3.30;;;;;;;3.00;98.90;94376.00;5048524;28;20524;-48
2023/01/24 00:09:45;;;;;;;3.67;2.50;;;;;;;3.06;100.00;94378.78;5040063;28;20528;-48
2023/01/24 00:12:11;;;;;;;5.35;3.55;;;;;;;2.82;100.00;94380.97;5028910;28;20420;-49
2023/01/24 00:14:36;;;;;;;5.18;2.90;;;;;;;2.98;100.00;94389.38;5028498;28;20482;-48
2023/01/24 00:17:02;;;;;;;4.97;3.38;;;;;;;3.08;100.00;94385.28;5048905;28;20028;-49
2023/01/24 00:19:27;;;;;;;3.70;2.83;;;;;;;3.21;100.00;94382.19;5068179;28;20036;-48
2023/01/24 00:21:52;;;;;;;4.75;3.28;;;;;;;3.12;100.00;94376.88;5071548;28;20031;-49
2023/01/24 00:24:18;;;;;;;4.07;2.70;;;;;;;3.14;100.00;94373.69;5072209;28;20033;-50
2023/01/24 00:26:43;;;;;;;2.65;2.33;;;;;;;3.05;100.00;94369.84;5060841;28;20029;-49
2023/01/24 00:29:09;;;;;;;4.38;2.17;;;;;;;3.04;100.00;94382.00;5051672;28;20056;-48
2023/01/24 00:31:34;;;;;;;2.53;2.13;;;;;;;3.28;100.00;94373.59;5051614;28;20074;-49
2023/01/24 00:34:00;;;;;;;3.75;1.98;;;;;;;3.21;100.00;94376.00;5035120;28;20022;-49
2023/01/24 00:36:26;;;;;;;2.47;1.73;;;;;;;3.28;100.00;94367.41;5031788;28;20513;-49
2023/01/24 00:38:53;;;;;;;3.88;2.28;;;;;;;3.33;100.00;94377.63;5037273;28;20024;-49
2023/01/24 00:41:19;;;;;;;4.07;2.90;;;;;;;3.37;100.00;94372.72;5051960;28;20029;-48
2023/01/24 00:43:44;;;;;;;4.22;2.40;;;;;;;3.50;100.00;94386.75;5052035;28;20428;-49
2023/01/24 00:46:10;;;;;;;3.83;2.67;;;;;;;3.47;99.90;94383.00;5052014;28;20445;-48
2023/01/24 00:48:35;;;;;;;2.38;1.83;;;;;;;3.30;97.94;94379.34;5051423;28;20024;-48
2023/01/24 00:51:01;;;;;;;2.05;1.85;;;;;;;3.30;98.50;94384.78;5051416;28;20123;-49
2023/01/24 00:53:26;;;;;;;3.08;1.95;;;;;;;3.19;98.05;94390.13;5051929;28;20028;-48
2023/01/24 00:55:54;;;;;;;2.45;1.75;;;;;;;3.17;97.98;94384.41;5052029;28;20604;-52
2023/01/24 00:58:20;;;;;;;1.33;1.23;;;;;;;3.10;97.67;94392.97;5051324;28;20040;-49
2023/01/24 01:00:46;;;;;;;1.23;1.13;;;;;;;3.04;97.56;94387.47;5051192;28;20037;-49
2023/01/24 01:03:14;;;;;;;1.08;1.00;;;;;;;2.94;97.81;94380.66;5051553;28;20028;-49
2023/01/24 01:05:40;;;;;;;1.35;1.25;;;;;;;3.06;96.79;94392.44;5032058;28;20033;-48
2023/01/24 01:08:06;;;;;;;3.25;1.58;;;;;;;2.93;96.13;94395.50;5031117;28;20044;-48
2023/01/24 01:10:31;;;;;;;1.45;1.33;;;;;;;2.85;97.05;94397.16;5045796;28;20048;-49
2023/01/24 01:12:57;;;;;;;2.28;1.50;;;;;;;2.93;96.87;94403.69;5058437;28;20051;-49
2023/01/24 01:15:22;;;;;;;1.63;1.42;;;;;;;2.85;96.76;94401.84;5071286;28;20043;-49
2023/01/24 01:17:47;;;;;;;3.55;1.40;;;;;;;2.80;96.21;94394.31;5070954;28;20086;-49
2023/01/24 01:20:13;;;;;;;1.10;1.00;;;;;;;2.73;96.35;94398.19;5071155;28;20020;-49
2023/01/24 01:22:38;;;;;;;5.35;1.02;;;;;;;2.67;96.51;94399.34;5071153;28;20550;-48
2023/01/24 01:25:04;;;;;;;1.52;0.95;;;;;;;2.78;96.17;94403.00;5070983;28;20036;-50
2023/01/24 01:27:30;;;;;;;2.35;1.05;;;;;;;2.61;95.88;94399.28;5036145;28;20022;-48
2023/01/24 01:29:55;;;;;;;1.98;1.30;;;;;;;2.57;95.87;94397.97;5030567;28;20163;-48
2023/01/24 01:32:21;;;;;;;2.05;0.82;;;;;;;2.51;95.73;94397.91;5044035;28;20033;-49
2023/01/24 01:34:46;;;;;;;1.55;1.00;;;;;;;2.48;95.70;94395.38;5051093;28;20028;-48
2023/01/24 01:37:11;;;;;;;1.60;1.48;;;;;;;2.40;96.76;94395.00;5050775;28;20033;-49
2023/01/24 01:39:37;;;;;;;2.38;1.75;;;;;;;2.51;95.30;94391.69;5038995;28;20029;-49
2023/01/24 01:42:02;;;;;;;1.55;1.30;;;;;;;2.41;94.88;94388.31;5030483;28;20033;-49
2023/01/24 01:47:22;;;;;;;1.38;1.20;;;;;;;2.46;95.74;94389.63;5030963;28;20040;-49
2023/01/24 01:49:59;;;;;;;2.17;1.30;;;;;;;2.38;96.19;94383.84;5030604;28;20052;-49
2023/01/24 01:52:27;;;;;;;2.63;1.60;;;;;;;2.23;98.20;94372.94;5029170;28;20044;-49
2023/01/24 01:54:56;;;;;;;2.05;1.58;;;;;;;2.30;99.46;94379.97;5029491;28;20037;-49
2023/01/24 01:57:22;;;;;;;;;;;;;;;2.27;100.00;94376.22;5029928;28;20059;-48
2023/01/24 01:59:51;;;;;;;1.45;1.05;;;;;;;2.22;100.00;94387.06;5029181;28;20006;-49
2023/01/24 02:02:18;;;;;;;4.28;1.92;;;;;;;2.36;100.00;94364.47;5030154;28;20034;-48
2023/01/24 02:04:47;;;;;;;1.55;1.30;;;;;;;2.52;100.00;94382.28;5042059;28;20112;-49
2023/01/24 02:07:22;;;;;;;1.33;1.20;;;;;;;2.47;100.00;94374.78;5050175;28;20536;-49
2023/01/24 02:09:50;;;;;;;13.25;9.23;;;;;;;2.44;100.00;94368.31;5041955;28;20032;-50
2023/01/24 02:12:28;;;;;;;2.78;2.50;;;;;;;2.33;99.21;94370.88;5030346;28;20025;-49
2023/01/24 02:17:41;;;;;;;3.88;3.22;;;;;;;2.35;99.34;94368.41;5029060;28;20436;-49
2023/01/24 02:20:43;;;;;;;2.00;1.80;;;;;;;2.25;99.87;94373.22;5030297;28;20025;-49
2023/01/24 02:23:40;;;;;;;2.20;1.65;;;;;;;2.35;99.11;94370.38;5016851;28;20037;-48
2023/01/24 02:26:20;;;;;;;3.28;2.67;;;;;;;2.26;100.00;94376.69;5035652;28;20041;-51
2023/01/24 02:28:57;;;;;;;5.75;4.43;;;;;;;2.36;100.00;94374.63;5049641;28;20578;-48
2023/01/24 02:31:23;;;;;;;0.98;0.90;;;;;;;2.36;100.00;94380.09;5048279;28;20036;-49
2023/01/24 02:33:48;;;;;;;1.30;0.98;;;;;;;2.34;100.00;94372.34;5034110;28;20037;-50
2023/01/24 02:36:26;;;;;;;1.45;0.80;;;;;;;2.48;100.00;94368.09;5029600;28;20095;-48
2023/01/24 02:39:10;;;;;;;3.08;1.42;;;;;;;2.62;100.00;94370.78;5035246;28;20478;-50
2023/01/24 02:41:48;;;;;;;1.25;0.90;;;;;;;2.30;99.43;94377.25;5031747;28;20110;-49
2023/01/24 02:44:20;;;;;;;0.95;0.95;;;;;;;2.45;99.09;94372.53;5047616;28;20032;-49
2023/01/24 02:46:46;;;;;;;1.50;1.40;;;;;;;2.52;98.08;94365.94;5049332;28;20548;-48
2023/01/24 02:49:11;;;;;;;4.30;1.60;;;;;;;2.47;99.64;94353.72;5049409;28;20031;-49
2023/01/24 02:54:22;;;;;;;1.20;1.10;;;;;;;2.24;98.57;94358.13;5049291;28;20039;-49
2023/01/24 02:59:31;;;;;;;1.85;1.70;;;;;;;2.26;97.71;94368.53;5049364;28;20478;-50
2023/01/24 03:01:57;;;;;;;3.03;1.50;;;;;;;2.17;98.43;94363.94;5049047;28;20028;-49
2023/01/24 03:04:22;;;;;;;1.80;1.70;;;;;;;2.31;98.56;94359.69;5040580;28;20025;-49
2023/01/24 03:06:48;;;;;;;1.95;1.85;;;;;;;2.27;98.05;94361.88;5029306;28;20044;-49
2023/01/24 03:09:18;;;;;;;0.98;0.95;;;;;;;2.26;97.50;94368.53;5040904;28;20428;-49
2023/01/24 03:11:47;;;;;;;1.08;0.98;;;;;;;2.11;98.04;94346.78;5049160;28;20053;-48
2023/01/24 03:36:06;;;;;;;2.17;1.35;;;;;;;2.10;96.82;94367.03;5028974;28;20036;-48
2023/01/24 03:41:16;;;;;;;2.10;1.40;;;;;;;1.93;98.73;94355.13;5049199;28;20784;-49
2023/01/24 03:43:43;;;;;;;1.50;0.98;;;;;;;2.03;98.65;94355.81;5048868;28;20028;-49
2023/01/24 03:46:08;;;;;;;4.75;2.33;;;;;;;1.94;97.95;94356.66;5048457;28;20574;-50
2023/01/24 03:48:36;;;;;;;4.95;2.20;;;;;;;1.82;97.70;94365.13;5048693;28;20025;-50
2023/01/24 03:53:47;;;;;;;1.20;1.08;;;;;;;1.88;99.21;94364.00;5048783;28;20063;-49
2023/01/24 03:56:13;;;;;;;1.27;1.00;;;;;;;1.99;99.26;94364.16;5051148;28;20649;-49
2023/01/24 03:58:39;;;;;;;1.85;1.35;;;;;;;1.88;98.85;94365.97;5052686;28;20075;-48
2023/01/24 04:01:05;;;;;;;2.83;2.05;;;;;;;1.92;98.05;94363.78;5052456;28;20086;-50
2023/01/24 04:03:32;;;;;;;4.95;2.45;;;;;;;1.84;97.55;94363.41;5051307;28;20075;-49
2023/01/24 04:05:58;;;;;;;2.92;2.03;;;;;;;1.85;96.60;94366.88;5055641;28;20131;-50
2023/01/24 04:08:23;;;;;;;2.72;2.00;;;;;;;1.93;94.79;94371.47;5072170;28;20028;-49
2023/01/24 04:10:48;;;;;;;3.47;2.15;;;;;;;1.74;96.56;94369.41;5072359;28;20024;-49
2023/01/24 04:13:14;;;;;;;4.55;3.35;;;;;;;1.74;97.21;94374.88;5072673;28;20116;-49
2023/01/24 04:15:39;;;;;;;20.48;12.40;;;;;;;1.71;97.01;94371.09;5072480;28;20066;-49
2023/01/24 04:18:05;;;;;;;5.43;3.85;;;;;;;1.83;97.05;94372.06;5072261;28;20496;-49
2023/01/24 04:20:34;;;;;;;4.22;2.72;;;;;;;1.85;95.98;94369.59;5072188;28;20032;-50
2023/01/24 04:23:01;;;;;;;2.97;2.10;;;;;;;1.89;95.63;94362.75;5072685;28;20146;-49
2023/01/24 04:25:27;;;;;;;3.28;2.72;;;;;;;1.80;97.74;94375.72;5071169;28;20032;-50
2023/01/24 04:27:52;;;;;;;16.33;10.65;;;;;;;1.84;99.16;94357.97;5032028;28;20030;-49
2023/01/24 04:30:18;;;;;;;3.83;2.92;;;;;;;1.91;99.61;94362.28;5031763;28;20114;-49
2023/01/24 04:32:44;;;;;;;5.15;3.55;;;;;;;2.10;98.21;94363.59;5038364;28;20031;-48
2023/01/24 04:35:15;;;;;;;3.55;2.78;;;;;;;1.75;97.63;94358.06;5052251;28;20064;-49
2023/01/24 04:37:41;;;;;;;1.83;1.70;;;;;;;1.67;98.72;94358.94;5051788;28;20497;-50
2023/01/24 04:40:08;;;;;;;1.92;1.73;;;;;;;1.75;98.90;94357.31;5051495;28;20032;-48
2023/01/24 04:42:33;;;;;;;3.05;2.03;;;;;;;1.76;99.25;94366.97;5052126;28;20397;-48
2023/01/24 04:44:58;;;;;;;3.45;2.60;;;;;;;1.71;99.45;94370.38;5052079;28;20040;-50
2023/01/24 04:47:24;;;;;;;3.90;2.95;;;;;;;1.80;99.21;94364.84;5051859;28;20025;-49
2023/01/24 04:49:49;;;;;;;3.45;2.40;;;;;;;1.63;98.34;94358.34;5051378;28;20432;-50
2023/01/24 04:52:15;;;;;;;2.03;1.60;;;;;;;1.53;98.85;94365.84;5051526;28;20024;-49
2023/01/24 04:54:40;;;;;;;1.70;1.55;;;;;;;1.63;98.55;94363.78;5052009;28;20037;-48
2023/01/24 04:57:07;;;;;;;2.08;1.85;;;;;;;1.54;99.82;94365.38;5051655;28;20040;-48
2023/01/24 04:59:32;;;;;;;3.35;2.53;;;;;;;1.49;98.01;94368.00;5032239;28;20033;-49
2023/01/24 05:01:57;;;;;;;4.90;3.72;;;;;;;1.60;98.09;94360.06;5050413;28;20515;-49
2023/01/24 05:04:23;;;;;;;11.32;6.82;;;;;;;1.53;97.15;94361.16;5062576;28;20036;-49
2023/01/24 05:06:48;;;;;;;11.63;7.00;;;;;;;1.61;97.99;94358.81;5050918;28;20025;-49
2023/01/24 05:09:14;;;;;;;12.95;7.30;;;;;;;1.61;97.24;94361.53;5047164;28;20025;-48
2023/01/24 05:11:39;;;;;;;18.67;11.02;;;;;;;1.37;96.09;94353.44;5031522;28;20029;-49
2023/01/24 05:14:05;;;;;;;23.25;13.48;;;;;;;1.36;95.50;94359.38;5031649;28;20036;-49
2023/01/24 05:16:30;;;;;;;9.27;5.45;;;;;;;1.26;96.00;94363.38;5031276;28;20448;-48
2023/01/24 05:18:56;;;;;;;6.82;3.78;;;;;;;1.29;95.58;94373.31;5030980;28;20033;-49
2023/01/24 05:21:21;;;;;;;13.15;7.50;;;;;;;1.26;96.93;94363.38;5031016;28;20033;-49
2023/01/24 05:23:52;;;;;;;9.57;5.25;;;;;;;1.26;97.67;94366.09;5031019;28;20039;-49
2023/01/24 05:26:19;;;;;;;14.80;5.95;;;;;;;1.25;96.97;94357.19;5038359;28;20033;-48
2023/01/24 05:28:44;;;;;;;7.40;3.85;;;;;;;1.32;94.90;94366.97;5050774;28;20033;-50
2023/01/24 05:31:09;;;;;;;12.85;5.65;;;;;;;1.29;95.23;94367.88;5046532;28;20497;-49
2023/01/24 05:33:35;;;;;;;9.35;5.03;;;;;;;1.17;96.82;94372.34;5044200;28;20033;-49
2023/01/24 05:36:04;;;;;;;9.07;4.00;;;;;;;1.12;97.40;94373.00;5051142;28;20036;-48
2023/01/24 05:38:30;;;;;;;17.90;8.48;;;;;;;1.09;97.65;94376.66;5050818;28;20114;-49
2023/01/24 05:40:59;;;;;;;10.63;6.20;;;;;;;1.29;98.63;94371.38;5050569;28;20045;-49
2023/01/24 05:43:25;;;;;;;8.60;5.38;;;;;;;1.26;99.08;94388.59;5050519;28;20056;-50
2023/01/24 05:45:50;;;;;;;18.60;8.15;;;;;;;1.33;98.07;94390.22;5050646;28;20037;-49
2023/01/24 05:48:16;;;;;;;13.35;7.82;;;;;;;1.26;96.47;94390.56;5050690;28;20020;-48
2023/01/24 05:50:41;;;;;;;6.65;4.75;;;;;;;1.27;96.26;94390.13;5050371;28;20033;-50
2023/01/24 05:53:07;;;;;;;7.03;3.75;;;;;;;1.22;94.85;94406.31;5050659;28;20039;-49
2023/01/24 05:55:32;;;;;;;6.53;3.55;;;;;;;1.19;94.87;94404.53;5050563;28;20044;-50
2023/01/24 05:57:59;;;;;;;2.47;2.20;;;;;;;1.10;93.54;94405.38;5051297;28;20036;-49
2023/01/24 06:00:25;;;;;;;5.43;2.45;;;;;;;1.13;95.93;94406.38;5050355;28;20488;-48
2023/01/24 06:02:51;;;;;;;4.50;2.85;;;;;;;1.28;94.96;94415.34;5050494;28;20035;-49
2023/01/24 06:05:16;;;;;;;6.63;3.08;;;;;;;1.29;94.46;94425.00;5034265;28;20033;-48
2023/01/24 06:07:41;;;;;;;20.35;8.68;;;;;;;1.22;95.04;94428.06;5030586;28;20473;-50
2023/01/24 06:10:08;;;;;;;4.97;4.03;;;;;;;1.28;94.91;94437.09;5030238;28;20164;-49
2023/01/24 06:12:33;;;;;;;2.38;1.63;;;;;;;1.21;92.97;94437.47;5030070;28;20079;-50
2023/01/24 06:14:58;;;;;;;3.22;2.00;;;;;;;1.22;92.52;94444.41;5030195;28;20029;-48
2023/01/24 06:17:24;;;;;;;2.58;1.80;;;;;;;1.08;92.85;94459.47;5029653;28;20030;-50
2023/01/24 06:19:50;;;;;;;3.22;2.10;;;;;;;0.97;92.76;94450.31;5029440;28;20052;-49
2023/01/24 06:22:38;;;;;;;3.75;2.35;;;;;;;0.95;92.47;94469.81;5030400;28;20036;-49
2023/01/24 06:25:04;;;;;;;2.47;2.10;;;;;;;0.91;92.73;94468.47;5029821;28;20072;-50
2023/01/24 06:27:30;;;;;;;3.67;2.30;;;;;;;0.97;93.44;94472.81;5047053;28;20116;-49
2023/01/24 06:29:56;;;;;;;5.03;3.15;;;;;;;1.01;93.65;94467.19;5049598;28;20495;-49
2023/01/24 06:32:44;;;;;;;5.03;2.92;;;;;;;1.02;91.69;94482.31;5037712;28;20024;-48
2023/01/24 06:35:25;;;;;;;3.15;2.47;;;;;;;1.08;92.06;94478.50;5049922;28;20103;-50
2023/01/24 06:37:52;;;;;;;6.13;3.22;;;;;;;0.87;91.48;94484.22;5065233;28;20455;-49
2023/01/24 06:40:20;;;;;;;5.28;2.50;;;;;;;0.87;92.06;94478.78;5049635;28;20111;-49
2023/01/24 06:42:46;;;;;;;7.20;2.83;;;;;;;0.74;94.29;94482.44;5049919;28;20059;-49
2023/01/24 06:45:12;;;;;;;4.82;2.85;;;;;;;0.79;93.91;94478.34;5049580;28;20033;-48
2023/01/24 06:47:39;;;;;;;2.08;1.60;;;;;;;0.81;94.92;94480.59;5049228;28;20033;-50
2023/01/24 06:50:07;;;;;;;8.02;3.75;;;;;;;0.88;94.08;94477.53;5049670;28;20040;-49
2023/01/24 06:52:33;;;;;;;3.28;1.95;;;;;;;0.78;94.44;94469.44;5049615;28;20067;-49
2023/01/24 06:54:59;;;;;;;1.40;1.00;;;;;;;0.82;92.63;94472.00;5062995;28;20040;-49
2023/01/24 06:57:24;;;;;;;2.72;1.15;;;;;;;0.87;91.68;94473.34;5067823;28;20032;-50
2023/01/24 06:59:49;;;;;;;3.17;1.30;;;;;;;0.86;92.31;94480.72;5049279;28;20028;-50
2023/01/24 07:02:15;;;;;;;1.98;1.10;;;;;;;0.88;92.05;94480.25;5049451;28;20029;-49
2023/01/24 07:04:40;;;;;;;2.50;1.65;;;;;;;0.89;92.94;94479.06;5038037;28;20037;-49
2023/01/24 07:07:06;;;;;;;0.70;0.70;;;;;;;0.78;90.85;94477.59;5029113;28;20037;-50
2023/01/24 07:09:32;;;;;;;4.25;2.10;;;;;;;0.89;91.91;94474.34;5035572;28;20086;-49
2023/01/24 07:11:58;;;;;;;5.55;2.80;;;;;;;1.02;91.81;94474.16;5048907;28;20490;-49
2023/01/24 07:14:24;;;;;;;5.18;3.40;;;;;;;1.18;93.36;94481.91;5048964;28;20079;-49
2023/01/24 07:16:50;;;;;;;6.93;4.65;;;;;;;1.25;92.62;94484.28;5049347;28;20060;-49
2023/01/24 07:19:23;;;;;;;1.88;1.65;;;;;;;1.24;92.52;94485.47;5048782;28;20048;-48
2023/01/24 07:21:49;;;;;;;1.63;1.52;;;;;;;1.19;92.89;94494.31;5049073;28;20033;-49
2023/01/24 07:24:20;;;;;;;3.33;2.70;;;;;;;1.30;91.07;94489.81;5049014;28;20033;-49
2023/01/24 07:26:48;;;;;;;5.38;3.50;;;;;;;1.13;92.60;94493.41;5047273;28;20029;-49
2023/01/24 07:29:13;;;;;;;6.18;3.80;;;;;;;1.26;92.14;94488.50;5048542;28;20053;-51
2023/01/24 07:31:39;;;;;;;21.08;11.20;;;;;;;1.38;91.98;94488.28;5040488;28;20059;-50
2023/01/24 07:34:04;;;;;;;11.60;6.65;;;;;;;1.58;92.70;94493.13;5045982;28;20029;-49
2023/01/24 07:36:30;;;;;;;5.70;4.28;;;;;;;1.58;93.67;94495.09;5048763;28;20060;-49
2023/01/24 07:38:56;;;;;;;3.30;2.67;;;;;;;1.74;93.85;94495.41;5048502;28;20013;-50
2023/01/24 07:41:21;;;;;;;12.98;6.88;;;;;;;1.69;93.76;94503.47;5048673;28;20068;-50
2023/01/24 07:43:47;;;;;;;13.23;7.20;;;;;;;1.79;93.12;94499.44;5048968;28;20119;-49
2023/01/24 07:46:13;;;;;;;8.70;5.60;;;;;;;1.72;91.71;94505.25;5048475;28;20133;-49
2023/01/24 07:48:39;;;;;;;4.97;2.75;;;;;;;1.55;91.38;94504.94;5048679;28;20033;-49
2023/01/24 07:51:05;;;;;;;14.57;4.68;;;;;;;1.56;91.37;94502.97;5061292;28;20435;-49
2023/01/24 07:53:30;;;;;;;13.73;6.30;;;;;;;1.51;90.84;94502.41;5068528;28;20031;-49
2023/01/24 07:55:59;;;;;;;5.22;2.92;;;;;;;1.37;88.01;94508.53;5068697;28;20035;-49
2023/01/24 07:58:24;;;;;;;9.25;3.58;;;;;;;1.29;89.59;94510.09;5068552;28;20025;-49
2023/01/24 08:00:50;;;;;;;15.68;4.45;;;;;;;1.33;88.38;94513.38;5068623;28;20043;-49
2023/01/24 08:03:15;;;;;;;6.60;3.53;;;;;;;1.25;88.46;94514.97;5068547;28;20464;-49
2023/01/24 08:05:41;;;;;;;5.95;2.38;;;;;;;1.25;90.07;94516.94;5049192;28;20044;-49
2023/01/24 08:08:06;;;;;;;1.90;1.33;;;;;;;1.46;90.96;94519.34;5048231;28;20053;-49
2023/01/24 08:10:32;;;;;;;3.00;1.70;;;;;;;1.27;89.60;94514.50;5034253;28;20034;-49
2023/01/24 08:12:57;;;;;;;7.72;3.95;;;;;;;1.28;89.53;94526.88;5028703;28;20037;-49
2023/01/24 08:15:23;;;;;;;5.45;1.45;;;;;;;1.37;90.65;94534.97;5028282;28;20493;-49
2023/01/24 08:17:48;;;;;;;3.65;2.50;;;;;;;1.39;88.89;94524.38;5028473;28;20037;-49
2023/01/24 08:20:14;;;;;;;4.53;3.47;;;;;;;1.38;87.64;94525.59;5028320;28;20036;-49
2023/01/24 08:22:40;;;;;;;4.60;2.50;;;;;;;1.12;88.49;94528.03;5028284;28;20037;-48
2023/01/24 08:25:07;;;;;;;1.48;1.38;;;;;;;1.27;88.38;94534.28;5028461;28;20033;-48
2023/01/24 08:27:32;;;;;;;4.60;2.20;;;;;;;1.06;87.52;94535.28;5063132;28;20036;-49
2023/01/24 08:29:58;;;;;;;5.80;3.58;;;;;;;1.05;88.88;94539.25;5067871;28;20145;-49
2023/01/24 08:32:23;;;;;;;14.02;8.18;;;;;;;1.11;89.88;94526.50;5043345;28;20032;-49
2023/01/24 08:34:49;;;;;;;7.38;4.90;;;;;;;1.05;88.65;94541.97;5048363;28;20057;-48
2023/01/24 08:37:15;;;;;;;5.43;2.90;;;;;;;1.02;88.86;94545.59;5048058;28;20047;-49
2023/01/24 08:39:40;;;;;;;2.70;1.70;;;;;;;0.93;90.12;94544.91;5048476;28;20047;-48
2023/01/24 08:42:06;;;;;;;3.28;2.88;;;;;;;0.87;89.92;94533.88;5049964;28;20033;-49
2023/01/24 08:44:32;;;;;;;4.20;2.97;;;;;;;0.87;90.18;94538.59;5051717;28;20025;-49
2023/01/24 08:46:57;;;;;;;7.53;4.13;;;;;;;0.99;89.63;94538.38;5061406;28;20021;-48
2023/01/24 08:49:23;;;;;;;4.25;3.05;;;;;;;1.01;88.69;94535.19;5071783;28;20059;-49
2023/01/24 08:51:48;;;;;;;2.33;1.77;;;;;;;0.88;87.98;94538.13;5071616;28;20025;-49
2023/01/24 08:54:14;;;;;;;2.22;1.90;;;;;;;0.85;88.52;94535.53;5071530;28;20064;-49
2023/01/24 08:56:40;;;;;;;4.75;2.33;;;;;;;0.75;89.60;94537.56;5071334;28;20040;-48
2023/01/24 08:59:05;;;;;;;1.58;1.15;;;;;;;0.92;89.40;94537.94;5056161;28;20036;-50
2023/01/24 09:01:33;;;;;;;2.70;1.67;;;;;;;0.90;89.82;94545.81;5051620;28;20516;-50
2023/01/24 09:03:59;;;;;;;4.32;1.95;;;;;;;0.75;89.80;94532.13;5045846;28;20061;-49
2023/01/24 09:06:25;;;;;;;3.22;2.10;;;;;;;0.83;90.54;94529.81;5031492;28;20060;-49
2023/01/24 09:08:53;;;;;;;3.30;2.10;;;;;;;0.95;90.23;94529.63;5030484;28;20068;-49
2023/01/24 09:11:19;;;;;;;4.55;2.60;;;;;;;0.93;89.22;94523.16;5051456;28;20024;-49
2023/01/24 09:13:44;;;;;;;4.30;2.35;;;;;;;0.94;89.90;94530.84;5051437;28;20709;-49
2023/01/24 09:16:10;;;;;;;7.90;4.60;;;;;;;1.13;89.58;94526.81;5050956;28;20029;-49
2023/01/24 09:18:35;;;;;;;6.47;3.80;;;;;;;1.00;88.23;94530.94;5051624;28;20045;-49
2023/01/24 09:21:02;;;;;;;6.90;4.13;;;;;;;0.94;89.13;94533.56;5050949;28;20037;-48
2023/01/24 09:23:28;;;;;;;2.80;2.50;;;;;;;0.99;88.64;94530.22;5051002;28;20028;-49
2023/01/24 09:25:54;;;;;;;3.72;2.95;;;;;;;0.96;89.15;94539.28;5055032;28;20102;-49
2023/01/24 09:28:21;;;;;;;7.63;4.60;;;;;;;0.99;89.79;94530.22;5070699;28;20035;-49
2023/01/24 09:30:48;;;;;;;6.55;3.92;;;;;;;0.92;89.27;94527.81;5068972;28;20523;-49
2023/01/24 09:33:14;;;;;;;3.35;2.55;;;;;;;1.09;90.07;94534.38;5041368;28;20044;-49
2023/01/24 09:35:39;;;;;;;3.38;1.90;;;;;;;1.15;89.47;94537.25;5051018;28;20389;-49
2023/01/24 09:38:05;;;;;;;8.27;4.30;;;;;;;1.11;88.65;94531.19;5050650;28;20032;-50
2023/01/24 09:40:43;;;;;;;5.00;3.13;;;;;;;1.17;88.02;94532.09;5051095;28;20029;-49
2023/01/24 09:43:27;;;;;;;5.47;3.50;;;;;;;1.11;88.62;94531.94;5059692;28;20060;-48
2023/01/24 09:46:04;;;;;;;4.50;3.45;;;;;;;1.25;89.45;94528.56;5070678;28;20492;-49
2023/01/24 09:48:32;;;;;;;3.55;1.77;;;;;;;1.30;87.58;94527.19;5069241;28;20025;-49
2023/01/24 09:51:01;;;;;;;3.17;2.22;;;;;;;1.30;86.97;94529.91;5070476;28;20063;-49
2023/01/24 09:53:29;;;;;;;;;;;;;;;1.23;88.21;94517.41;5068620;28;20056;-49
2023/01/24 09:55:55;;;;;;;3.03;1.73;;;;;;;1.49;87.72;94518.41;5070560;28;19916;-49
2023/01/24 09:58:31;;;;;;;3.17;2.30;;;;;;;1.51;85.82;94518.72;5059414;28;20021;-48
2023/01/24 10:01:07;;;;;;;5.65;3.90;;;;;;;1.49;85.94;94518.41;5050839;28;20471;-49
2023/01/24 10:03:33;;;;;;;3.88;2.42;;;;;;;1.61;86.22;94505.78;5047453;28;20416;-49
2023/01/24 10:06:04;;;;;;;2.75;1.92;;;;;;;1.62;85.40;94504.59;5030178;28;20040;-50
2023/01/24 10:08:32;;;;;;;3.75;1.85;;;;;;;1.57;86.16;94507.19;5030473;28;20040;-49
2023/01/24 10:11:25;;;;;;;3.40;2.30;;;;;;;1.41;86.27;94506.38;5030484;28;20720;-49
2023/01/24 10:14:11;;;;;;;2.10;1.45;;;;;;;1.39;85.84;94503.38;5030015;28;20522;-50
2023/01/24 10:16:39;;;;;;;3.42;2.30;;;;;;;1.44;85.86;94502.75;5029280;28;20104;-49
2023/01/24 10:19:17;;;;;;;2.28;1.52;;;;;;;1.49;85.52;94498.63;5030319;28;20383;-49
2023/01/24 10:22:13;;;;;;;1.50;1.40;;;;;;;1.45;84.58;94504.22;5028725;28;20104;-49
2023/01/24 10:24:41;;;;;;;1.55;1.33;;;;;;;1.51;83.96;94498.91;5030268;28;20518;-49
2023/01/24 10:27:21;;;;;;;1.07;1.07;;;;;;;1.54;84.87;94487.09;5042788;28;20103;-50
2023/01/24 10:29:54;;;;;;;1.45;1.17;;;;;;;1.26;84.16;94499.38;5048643;28;20053;-50
2023/01/24 10:32:29;;;;;;;3.42;1.92;;;;;;;1.20;84.81;94485.66;5037629;28;20033;-49
2023/01/24 10:34:59;;;;;;;2.60;1.40;;;;;;;1.30;85.08;94483.66;5050081;28;20036;-48
2023/01/24 10:37:28;;;;;;;3.95;2.97;;;;;;;1.33;85.16;94482.72;5048316;28;20064;-50
2023/01/24 10:39:54;;;;;;;8.30;3.72;;;;;;;1.34;85.70;94484.97;5062635;28;20097;-48
2023/01/24 10:42:25;;;;;;;4.95;3.60;;;;;;;1.49;85.46;94472.16;5069480;28;20491;-49
2023/01/24 10:44:51;;;;;;;2.22;1.80;;;;;;;1.49;85.15;94479.59;5068053;28;20033;-49
2023/01/24 10:47:37;;;;;;;4.90;2.72;;;;;;;1.51;85.55;94475.19;5068157;28;20036;-48
2023/01/24 10:50:08;;;;;;;6.90;4.60;;;;;;;1.51;84.90;94477.16;5068406;28;20036;-50
2023/01/24 10:52:34;;;;;;;8.55;2.92;;;;;;;1.43;84.26;94467.81;5069489;28;20029;-50
2023/01/24 10:55:02;;;;;;;2.60;2.40;;;;;;;1.39;86.24;94468.00;5069388;28;20222;-48
2023/01/24 10:57:49;;;;;;;5.47;2.92;;;;;;;1.57;86.59;94469.06;5066897;28;20059;-49
2023/01/24 11:00:34;;;;;;;1.33;1.20;;;;;;;1.61;85.73;94470.41;5048234;28;20033;-50
2023/01/24 11:03:04;;;;;;;2.00;0.95;;;;;;;1.73;84.26;94471.38;5049283;28;20028;-49
2023/01/24 11:05:39;;;;;;;0.80;0.80;;;;;;;1.76;84.56;94459.53;5031083;28;20041;-49
2023/01/24 11:08:05;;;;;;;1.58;1.20;;;;;;;1.63;84.53;94467.22;5028236;28;20639;-51
2023/01/24 11:10:36;;;;;;;2.17;1.80;;;;;;;1.60;85.17;94470.88;5043620;28;20032;-49
2023/01/24 11:13:02;;;;;;;4.63;3.10;;;;;;;1.74;85.11;94464.69;5048881;28;20496;-50
2023/01/24 11:15:30;;;;;;;10.48;5.05;;;;;;;1.83;84.69;94451.75;5049130;28;20101;-49
2023/01/24 11:18:11;;;;;;;16.80;7.75;;;;;;;1.80;84.26;94465.56;5047671;28;20028;-49
2023/01/24 11:20:36;;;;;;;7.55;3.92;;;;;;;1.73;83.84;94460.50;5048021;28;20025;-49
2023/01/24 11:23:24;;;;;;;16.90;9.30;;;;;;;1.59;85.75;94456.50;5049179;28;20459;-49
2023/01/24 11:25:56;;;;;;;15.82;7.53;;;;;;;1.72;85.41;94457.00;5048925;28;20108;-48
2023/01/24 11:28:26;;;;;;;5.65;3.42;;;;;;;1.67;83.80;94463.09;5049056;28;20032;-49
2023/01/24 11:30:53;;;;;;;13.25;6.43;;;;;;;1.51;84.95;94428.91;5046907;28;20124;-48
2023/01/24 11:33:48;;;;;;;6.93;3.78;;;;;;;1.66;82.68;94452.69;5038373;28;20025;-48
2023/01/24 11:36:39;;;;;;;10.90;5.47;;;;;;;1.81;83.68;94459.66;5062665;28;20487;-49
2023/01/24 11:39:16;;;;;;;12.57;6.28;;;;;;;1.76;83.54;94452.13;5061785;28;20465;-49
2023/01/24 11:41:56;;;;;;;8.30;3.90;;;;;;;1.72;83.78;94461.69;5047730;28;20021;-49
2023/01/24 11:44:34;;;;;;;2.63;2.08;;;;;;;1.50;83.20;94454.63;5047280;28;20559;-49
2023/01/24 11:47:06;;;;;;;3.60;3.30;;;;;;;1.57;84.89;94452.75;5047645;28;20029;-48
2023/01/24 11:50:17;;;;;;;7.97;4.53;;;;;;;1.71;84.08;94457.47;5048824;28;20050;-50
2023/01/24 11:53:21;;;;;;;15.98;7.05;;;;;;;1.49;83.01;94450.38;5006225;28;20036;-49
2023/01/24 11:55:56;;;;;;;10.90;5.60;;;;;;;1.53;84.37;94447.50;5048477;28;20075;-49
2023/01/24 11:58:43;;;;;;;3.17;2.80;;;;;;;1.44;83.16;94445.59;5037872;28;20025;-49
2023/01/24 12:01:09;;;;;;;5.80;3.88;;;;;;;1.23;83.59;94443.19;5028518;28;20103;-49
2023/01/24 12:03:43;;;;;;;3.95;2.67;;;;;;;1.11;85.21;94447.66;5030879;28;20057;-49
2023/01/24 12:06:28;;;;;;;3.40;2.20;;;;;;;1.14;85.63;94444.00;5048276;28;20060;-49
2023/01/24 12:09:19;;;;;;;3.67;2.58;;;;;;;1.04;85.40;94445.28;5047273;28;20731;-48
2023/01/24 12:12:09;;;;;;;2.70;2.33;;;;;;;0.94;85.34;94451.22;5048575;28;20511;-48
2023/01/24 12:14:35;;;;;;;2.63;1.95;;;;;;;1.12;85.35;94453.84;5047060;28;20043;-49
2023/01/24 12:17:15;;;;;;;3.75;1.85;;;;;;;1.01;85.71;94440.00;5050442;28;20028;-48
2023/01/24 12:20:19;;;;;;;5.70;3.65;;;;;;;1.01;85.21;94446.22;5052484;28;20020;-49
2023/01/24 12:22:45;;;;;;;17.52;7.60;;;;;;;1.00;85.62;94450.13;5052436;28;20028;-49
2023/01/24 12:25:13;;;;;;;8.48;5.00;;;;;;;0.81;85.78;94448.72;5052192;28;20060;-49
2023/01/24 12:27:40;;;;;;;10.38;4.80;;;;;;;0.90;86.93;94454.13;5050895;28;20029;-49